Time;durP1;ratioP1;P1;durP2;ratioP2;P2;SDS_P1;SDS_P2;PMS_P1;PMS_P2;Temp;Humidity;BMP_temperature;BMP_pressure;BME280_temperature;BME280_humidity;BME280_pressure;Samples;Min_cycle;Max_cycle;Signal;HPM_P1;HPM_P2
2022/06/23 00:02:25;;;;;;;7.60;4.20;;;615.30;2227.20;;;;;;4917744;29;20024;-75
2022/06/23 00:04:56;;;;;;;6.32;4.05;;;615.30;2252.80;;;;;;4917679;29;20035;-75
2022/06/23 00:07:28;;;;;;;9.05;4.72;;;615.30;2227.20;;;;;;4934798;29;20032;-75
2022/06/23 00:09:59;;;;;;;14.02;5.68;;;615.30;2252.80;;;;;;4934958;29;20393;-75
2022/06/23 00:12:30;;;;;;;12.32;4.90;;;615.20;2252.80;;;;;;4934492;29;20056;-75
2022/06/23 00:15:12;;;;;;;9.82;4.80;;;615.30;2252.80;;;;;;4936005;29;20083;-77
2022/06/23 00:17:53;;;;;;;11.88;5.03;;;615.30;2278.40;;;;;;4921105;29;20047;-75
2022/06/23 00:20:20;;;;;;;12.20;5.05;;;615.20;2278.40;;;;;;4938560;29;20028;-76
2022/06/23 00:22:51;;;;;;;14.48;4.35;;;615.20;2278.40;;;;;;4938475;29;20063;-75
2022/06/23 00:25:26;;;;;;;8.30;4.50;;;615.30;2252.80;;;;;;4938879;29;20015;-75
2022/06/23 00:27:52;;;;;;;13.20;4.20;;;615.20;2304.00;;;;;;4950233;28;20062;-75
2022/06/23 00:30:36;;;;;;;9.82;4.15;;;615.20;2278.40;;;;;;4938315;29;20374;-75
2022/06/23 00:33:25;;;;;;;10.73;4.80;;;615.20;2304.00;;;;;;4921205;29;20032;-75
2022/06/23 00:35:52;;;;;;;11.13;4.72;;;615.20;2278.40;;;;;;4940912;29;20031;-75
2022/06/23 00:38:25;;;;;;;10.93;4.88;;;615.20;2329.60;;;;;;4948432;29;20035;-75
2022/06/23 00:40:52;;;;;;;11.07;4.38;;;615.20;2304.00;;;;;;4938126;29;20019;-76
2022/06/23 00:43:19;;;;;;;10.50;4.93;;;615.20;2278.40;;;;;;4938228;29;20042;-75
2022/06/23 00:46:09;;;;;;;14.88;4.68;;;615.30;2278.40;;;;;;4938068;29;20022;-76
2022/06/23 00:48:47;;;;;;;9.23;4.88;;;615.20;2278.40;;;;;;4938232;29;20032;-77
2022/06/23 00:51:23;;;;;;;14.13;5.50;;;615.30;2201.60;;;;;;4921004;29;20103;-75
2022/06/23 00:54:04;;;;;;;11.30;4.28;;;640.00;2227.20;;;;;;4937915;29;20035;-76
2022/06/23 00:56:50;;;;;;;8.35;4.10;;;615.30;2176.00;;;;;;4937872;29;20020;-75
2022/06/23 00:59:58;;;;;;;10.52;4.53;;;615.30;2201.60;;;;;;4938074;29;20057;-75
2022/06/23 01:02:32;;;;;;;14.60;5.47;;;615.30;2201.60;;;;;;4879382;29;20033;-77
2022/06/23 01:05:01;;;;;;;13.90;4.82;;;615.30;2304.00;;;;;;4879236;29;20036;-75
2022/06/23 01:07:54;;;;;;;10.13;5.15;;;615.30;2406.40;;;;;;4879185;29;20029;-75
2022/06/23 01:10:35;;;;;;;14.57;5.50;;;615.00;2432.00;;;;;;4885949;29;20040;-75
2022/06/23 01:13:26;;;;;;;22.02;5.97;;;615.00;2432.00;;;;;;4883367;29;20101;-75
2022/06/23 01:16:16;;;;;;;19.52;6.88;;;614.80;2432.00;;;;;;4878474;29;20049;-75
2022/06/23 01:18:49;;;;;;;25.58;7.30;;;614.70;2432.00;;;;;;4823153;29;20083;-75
2022/06/23 01:21:25;;;;;;;16.70;6.90;;;614.40;2432.00;;;;;;4823810;29;20048;-75
2022/06/23 01:24:12;;;;;;;16.63;7.07;;;589.70;2432.00;;;;;;4808002;29;20042;-75
2022/06/23 01:26:53;;;;;;;14.45;7.20;;;589.60;2432.00;;;;;;4833694;29;20471;-75
2022/06/23 01:29:48;;;;;;;27.17;6.30;;;589.70;2432.00;;;;;;4823599;29;20050;-75
2022/06/23 01:32:28;;;;;;;18.30;7.63;;;589.50;2432.00;;;;;;4823442;29;20537;-75
2022/06/23 01:35:15;;;;;;;20.77;8.52;;;589.70;2432.00;;;;;;4823432;29;20041;-75
2022/06/23 01:37:43;;;;;;;;;;;589.70;2432.00;;;;;;4837144;29;20503;-75
2022/06/23 01:40:16;;;;;;;18.75;7.30;;;589.70;2432.00;;;;;;4844638;29;20361;-75
2022/06/23 01:42:58;;;;;;;24.17;8.23;;;589.50;2432.00;;;;;;4859609;29;20523;-74
2022/06/23 01:45:30;;;;;;;15.32;6.97;;;589.30;2432.00;;;;;;4859853;29;20034;-75
2022/06/23 01:48:54;;;;;;;25.13;7.38;;;589.20;2432.00;;;;;;4877377;29;20494;-74
2022/06/23 01:51:50;;;;;;;18.77;7.35;;;589.40;2432.00;;;;;;4805785;29;20057;-74
2022/06/23 01:54:21;;;;;;;17.42;7.18;;;589.50;2432.00;;;;;;4804752;29;20023;-74
2022/06/23 01:57:03;;;;;;;18.17;8.30;;;589.50;2432.00;;;;;;4856856;29;20427;-75
2022/06/23 01:59:31;;;;;;;25.27;8.80;;;589.50;2432.00;;;;;;4858920;29;20033;-76
2022/06/23 02:02:10;;;;;;;21.15;9.35;;;589.10;2432.00;;;;;;4846858;29;20056;-76
2022/06/23 02:04:41;;;;;;;21.83;9.40;;;589.10;2432.00;;;;;;4859676;29;20045;-77
2022/06/23 02:07:36;;;;;;;24.80;9.93;;;588.90;2432.00;;;;;;4865901;29;20503;-76
2022/06/23 02:10:28;;;;;;;21.30;11.23;;;564.10;2432.00;;;;;;4848561;29;20368;-76
2022/06/23 02:13:02;;;;;;;23.42;10.68;;;564.10;2432.00;;;;;;4859685;29;20208;-77
2022/06/23 02:15:37;;;;;;;32.30;10.20;;;564.10;2432.00;;;;;;4859134;29;20033;-76
2022/06/23 02:18:18;;;;;;;25.30;11.47;;;564.00;2432.00;;;;;;4859367;29;20057;-76
2022/06/23 02:20:58;;;;;;;21.88;10.23;;;564.00;2432.00;;;;;;4859521;29;20072;-76
2022/06/23 02:23:47;;;;;;;18.08;10.60;;;564.00;2432.00;;;;;;4859725;29;20056;-76
2022/06/23 02:26:16;;;;;;;16.95;9.20;;;563.90;2432.00;;;;;;4876015;29;20055;-76
2022/06/23 02:29:18;;;;;;;21.67;9.80;;;564.00;2432.00;;;;;;4917725;29;20040;-76
2022/06/23 02:31:47;;;;;;;20.17;10.57;;;564.10;2432.00;;;;;;4843723;29;20085;-76
2022/06/23 02:34:32;;;;;;;22.58;9.80;;;564.10;2432.00;;;;;;4858905;29;20168;-76
2022/06/23 02:37:07;;;;;;;21.60;9.85;;;564.00;2432.00;;;;;;4859023;29;20040;-76
2022/06/23 02:39:45;;;;;;;27.58;9.93;;;563.80;2432.00;;;;;;4859053;29;20037;-76
2022/06/23 02:42:38;;;;;;;21.88;10.75;;;563.90;2432.00;;;;;;4858995;29;20129;-77
2022/06/23 02:45:38;;;;;;;19.83;10.25;;;564.00;2432.00;;;;;;4841741;29;20478;-77
2022/06/23 02:48:19;;;;;;;20.40;10.13;;;564.10;2432.00;;;;;;4858569;29;20030;-76
2022/06/23 02:51:06;;;;;;;21.35;10.23;;;564.10;2432.00;;;;;;4859001;29;20037;-77
2022/06/23 02:54:06;;;;;;;16.40;10.32;;;588.80;2432.00;;;;;;4843486;29;20030;-77
2022/06/23 02:56:48;;;;;;;18.80;10.23;;;588.80;2432.00;;;;;;4843442;29;20045;-76
2022/06/23 02:59:33;;;;;;;16.38;9.98;;;564.10;2432.00;;;;;;4858480;29;20539;-77
2022/06/23 03:02:30;;;;;;;24.05;10.55;;;588.80;2432.00;;;;;;4843233;29;20053;-76
2022/06/23 03:05:04;;;;;;;23.17;9.68;;;564.10;2432.00;;;;;;4834969;29;20046;-76
2022/06/23 03:07:40;;;;;;;23.55;10.85;;;564.00;2432.00;;;;;;4855944;29;20128;-76
2022/06/23 03:10:12;;;;;;;;;;;564.10;2432.00;;;;;;4880157;29;20025;-77
2022/06/23 03:12:59;;;;;;;18.48;9.90;;;564.10;2432.00;;;;;;4880202;29;19907;-77
2022/06/23 03:15:53;;;;;;;13.43;9.18;;;564.10;2432.00;;;;;;4895621;29;20029;-77
2022/06/23 03:18:25;;;;;;;15.98;9.38;;;564.10;2432.00;;;;;;4879498;29;20418;-77
2022/06/23 03:20:57;;;;;;;15.75;9.60;;;564.10;2432.00;;;;;;4895788;29;20108;-77
2022/06/23 03:23:27;;;;;;;18.63;9.75;;;564.00;2432.00;;;;;;4879653;29;20532;-76
2022/06/23 03:25:56;;;;;;;14.40;9.98;;;564.00;2432.00;;;;;;4884608;29;20020;-75
2022/06/23 03:28:33;;;;;;;19.48;10.45;;;564.10;2432.00;;;;;;4887452;29;20044;-77
2022/06/23 03:31:11;;;;;;;14.80;10.27;;;563.90;2432.00;;;;;;4908432;29;20093;-76
2022/06/23 03:34:02;;;;;;;20.33;10.15;;;564.00;2432.00;;;;;;4895244;29;20036;-76
2022/06/23 03:36:41;;;;;;;17.10;10.45;;;564.00;2432.00;;;;;;4895421;29;20119;-77
2022/06/23 03:42:23;;;;;;;17.00;10.23;;;564.00;2432.00;;;;;;4908017;29;20402;-81
2022/06/23 03:45:11;;;;;;;16.95;9.88;;;564.00;2432.00;;;;;;4916266;29;20036;-76
2022/06/23 03:47:59;;;;;;;17.83;10.50;;;563.90;2432.00;;;;;;4898301;29;20032;-76
2022/06/23 03:50:38;;;;;;;16.95;11.43;;;563.80;2432.00;;;;;;4912530;29;20020;-76
2022/06/23 03:53:16;;;;;;;23.67;10.50;;;563.80;2432.00;;;;;;4915955;29;20032;-76
2022/06/23 03:55:55;;;;;;;15.93;9.98;;;563.80;2432.00;;;;;;4907345;29;20032;-76
2022/06/23 03:58:27;;;;;;;24.13;11.68;;;563.70;2432.00;;;;;;4916101;29;20020;-76
2022/06/23 04:01:07;;;;;;;20.88;10.55;;;563.70;2432.00;;;;;;4915888;29;20083;-75
2022/06/23 04:03:57;;;;;;;15.23;9.48;;;563.60;2432.00;;;;;;4915932;29;20082;-75
2022/06/23 04:06:43;;;;;;;15.20;9.80;;;563.70;2432.00;;;;;;4929316;29;20375;-74
2022/06/23 04:09:20;;;;;;;18.75;11.15;;;563.90;2432.00;;;;;;4915726;29;20032;-74
2022/06/23 04:12:06;;;;;;;19.25;11.05;;;563.70;2432.00;;;;;;4915690;29;20032;-74
2022/06/23 04:14:44;;;;;;;14.38;10.45;;;563.80;2432.00;;;;;;4910925;29;20223;-74
2022/06/23 04:17:10;;;;;;;14.68;10.68;;;563.80;2432.00;;;;;;4913444;29;20032;-73
2022/06/23 04:19:37;;;;;;;19.17;11.15;;;563.80;2432.00;;;;;;4934005;29;20094;-73
2022/06/23 04:22:20;;;;;;;16.58;10.88;;;563.70;2432.00;;;;;;4934908;29;20031;-75
2022/06/23 04:24:52;;;;;;;15.10;10.02;;;563.80;2432.00;;;;;;4939011;29;20465;-75
2022/06/23 04:27:52;;;;;;;17.95;10.25;;;564.00;2432.00;;;;;;4933984;28;20091;-74
2022/06/23 04:30:39;;;;;;;16.73;9.98;;;564.00;2432.00;;;;;;4868128;29;20110;-74
2022/06/23 04:33:13;;;;;;;12.38;9.95;;;563.80;2432.00;;;;;;4875615;29;20025;-74
2022/06/23 04:35:40;;;;;;;12.43;10.25;;;564.00;2432.00;;;;;;4875994;29;20491;-75
2022/06/23 04:38:15;;;;;;;14.13;9.40;;;564.10;2432.00;;;;;;4875913;29;20144;-77
2022/06/23 04:40:41;;;;;;;15.32;10.10;;;564.00;2432.00;;;;;;4875873;29;20431;-74
2022/06/23 04:43:31;;;;;;;19.38;10.00;;;563.90;2432.00;;;;;;4875598;29;20029;-74
2022/06/23 04:46:16;;;;;;;14.25;10.10;;;564.00;2432.00;;;;;;4876103;29;20532;-74
2022/06/23 04:49:05;;;;;;;14.27;8.73;;;564.10;2432.00;;;;;;4884651;29;20052;-73
2022/06/23 04:52:05;;;;;;;20.05;9.50;;;564.10;2432.00;;;;;;4874622;29;20032;-74
2022/06/23 04:55:04;;;;;;;16.52;9.63;;;563.90;2432.00;;;;;;4874858;29;20115;-73
2022/06/23 04:57:53;;;;;;;16.45;8.63;;;564.00;2432.00;;;;;;4838127;29;20058;-74
2022/06/23 05:00:26;;;;;;;13.55;8.80;;;564.00;2432.00;;;;;;4838777;29;20071;-73
2022/06/23 05:02:56;;;;;;;12.63;8.35;;;564.00;2432.00;;;;;;4841599;29;20125;-74
2022/06/23 05:05:41;;;;;;;14.20;8.00;;;564.10;2432.00;;;;;;4841788;29;20034;-73
2022/06/23 05:08:14;;;;;;;13.63;7.75;;;564.10;2432.00;;;;;;4893069;29;20036;-74
2022/06/23 05:10:48;;;;;;;14.27;7.57;;;564.00;2432.00;;;;;;4896170;29;20036;-74
2022/06/23 05:13:27;;;;;;;13.07;8.38;;;564.00;2432.00;;;;;;4913739;29;20029;-74
2022/06/23 05:16:06;;;;;;;14.45;8.85;;;564.00;2432.00;;;;;;4908166;29;20032;-73
2022/06/23 05:18:39;;;;;;;15.18;8.02;;;563.90;2432.00;;;;;;4898952;29;20048;-74
2022/06/23 05:21:09;;;;;;;19.33;9.13;;;564.00;2432.00;;;;;;4908366;29;20040;-74
2022/06/23 05:23:54;;;;;;;10.77;7.80;;;563.90;2432.00;;;;;;4899111;29;20076;-73
2022/06/23 05:26:28;;;;;;;14.97;7.60;;;564.00;2432.00;;;;;;4895092;29;20549;-73
2022/06/23 05:29:04;;;;;;;11.15;7.57;;;563.90;2432.00;;;;;;4896912;29;20068;-73
2022/06/23 05:31:33;;;;;;;11.55;7.70;;;564.00;2432.00;;;;;;4897242;29;20072;-73
2022/06/23 05:34:12;;;;;;;16.73;8.07;;;563.80;2432.00;;;;;;4912264;29;20027;-72
2022/06/23 05:37:01;;;;;;;15.05;8.18;;;563.90;2432.00;;;;;;4929030;29;20028;-74
2022/06/23 05:39:45;;;;;;;14.05;8.48;;;563.80;2432.00;;;;;;4935865;29;20027;-73
2022/06/23 05:42:20;;;;;;;11.20;8.82;;;563.80;2432.00;;;;;;4936327;29;20099;-73
2022/06/23 05:44:54;;;;;;;13.00;8.13;;;563.80;2432.00;;;;;;4935567;29;20297;-74
2022/06/23 05:47:21;;;;;;;13.85;9.00;;;563.80;2432.00;;;;;;4943028;29;20015;-75
2022/06/23 05:49:54;;;;;;;17.33;9.15;;;563.80;2432.00;;;;;;4944355;28;20095;-74
2022/06/23 05:52:33;;;;;;;14.02;8.65;;;563.80;2432.00;;;;;;4936762;29;20107;-74
2022/06/23 05:55:38;;;;;;;14.93;9.05;;;564.00;2432.00;;;;;;4928608;29;20390;-74
2022/06/23 05:58:46;;;;;;;12.27;8.45;;;563.80;2432.00;;;;;;4931564;29;20039;-74
2022/06/23 06:01:24;;;;;;;12.90;9.20;;;563.90;2432.00;;;;;;4833446;29;20143;-74
2022/06/23 06:03:55;;;;;;;13.32;8.25;;;563.80;2432.00;;;;;;4830395;29;20051;-73
2022/06/23 06:06:21;;;;;;;15.02;9.15;;;563.80;2432.00;;;;;;4831824;29;20026;-73
2022/06/23 06:11:50;;;;;;;16.75;9.52;;;563.80;2432.00;;;;;;4823526;29;20061;-76
2022/06/23 06:14:20;;;;;;;13.52;9.80;;;564.00;2432.00;;;;;;4832929;29;20037;-75
2022/06/23 06:16:46;;;;;;;14.70;8.70;;;563.80;2432.00;;;;;;4830667;29;20042;-75
2022/06/23 06:19:22;;;;;;;12.57;9.45;;;563.90;2432.00;;;;;;4831795;29;20058;-74
2022/06/23 06:21:51;;;;;;;19.75;9.18;;;564.00;2432.00;;;;;;4832545;29;20038;-74
2022/06/23 06:24:25;;;;;;;9.60;8.10;;;564.10;2432.00;;;;;;4830766;29;20046;-73
2022/06/23 06:26:54;;;;;;;15.50;9.82;;;564.10;2432.00;;;;;;4830456;29;20422;-73
2022/06/23 06:29:32;;;;;;;13.55;8.07;;;564.00;2432.00;;;;;;4823606;29;20041;-73
2022/06/23 06:32:04;;;;;;;14.32;8.23;;;564.10;2432.00;;;;;;4832701;29;20095;-73
2022/06/23 06:34:45;;;;;;;14.07;8.63;;;564.10;2432.00;;;;;;4840617;29;20030;-74
2022/06/23 06:37:14;;;;;;;10.25;7.53;;;564.10;2432.00;;;;;;4906250;29;20508;-74
2022/06/23 06:55:48;;;;;;;14.30;8.00;;;589.00;2432.00;;;;;;4211323;23;20063;-74
2022/06/23 06:58:33;;;;;;;14.52;7.68;;;588.90;2432.00;;;;;;4944133;28;20027;-74
2022/06/23 07:01:24;;;;;;;12.38;7.78;;;564.10;2432.00;;;;;;4936479;29;20027;-73
2022/06/23 07:03:53;;;;;;;14.35;8.82;;;564.00;2432.00;;;;;;4954481;28;20089;-74
2022/06/23 07:06:25;;;;;;;12.20;7.10;;;564.00;2432.00;;;;;;4954300;29;20015;-74
2022/06/23 07:09:03;;;;;;;11.85;8.02;;;563.80;2432.00;;;;;;4954289;28;20102;-74
2022/06/23 07:12:06;;;;;;;12.18;8.75;;;563.80;2432.00;;;;;;4954417;29;20075;-74
2022/06/23 07:14:38;;;;;;;17.45;9.00;;;563.80;2432.00;;;;;;4954190;28;20019;-74
2022/06/23 07:17:06;;;;;;;15.48;9.27;;;563.80;2432.00;;;;;;4954337;29;20102;-74
2022/06/23 07:19:57;;;;;;;13.60;9.27;;;563.70;2432.00;;;;;;4954605;28;20070;-74
2022/06/23 07:22:29;;;;;;;11.65;8.38;;;563.90;2432.00;;;;;;4954058;29;20263;-74
2022/06/23 07:25:05;;;;;;;15.13;8.13;;;564.10;2432.00;;;;;;4953835;28;20032;-74
2022/06/23 07:27:56;;;;;;;12.75;7.60;;;564.10;2432.00;;;;;;4954335;28;20054;-73
2022/06/23 07:30:30;;;;;;;15.02;8.48;;;588.90;2432.00;;;;;;4953734;29;20492;-74
2022/06/23 07:33:05;;;;;;;9.25;6.80;;;589.00;2432.00;;;;;;4953782;28;20539;-74
2022/06/23 07:36:00;;;;;;;11.77;7.88;;;589.00;2432.00;;;;;;4954061;28;20374;-74
2022/06/23 07:38:42;;;;;;;14.65;8.05;;;589.10;2432.00;;;;;;4951777;29;20035;-74
2022/06/23 07:41:16;;;;;;;11.20;6.78;;;588.90;2432.00;;;;;;4952658;28;20027;-75
2022/06/23 07:44:03;;;;;;;8.82;7.22;;;588.90;2432.00;;;;;;4952017;29;20023;-74
2022/06/23 07:46:30;;;;;;;11.80;7.22;;;588.80;2432.00;;;;;;4943703;29;20015;-74
2022/06/23 07:48:56;;;;;;;13.00;8.48;;;588.90;2432.00;;;;;;4953039;28;20481;-74
2022/06/23 07:51:22;;;;;;;13.68;8.65;;;588.90;2432.00;;;;;;4936125;29;20027;-74
2022/06/23 07:53:51;;;;;;;14.02;9.77;;;589.00;2432.00;;;;;;4936366;29;20027;-74
2022/06/23 07:56:20;;;;;;;15.50;9.55;;;589.00;2432.00;;;;;;4953503;28;20494;-74
2022/06/23 07:58:54;;;;;;;17.30;11.50;;;589.00;2432.00;;;;;;4953650;29;20031;-74
2022/06/23 08:01:30;;;;;;;16.35;11.02;;;589.00;2432.00;;;;;;4936235;29;20065;-74
2022/06/23 08:04:12;;;;;;;;;;;589.00;2432.00;;;;;;4954014;29;20046;-74
2022/06/23 08:06:38;;;;;;;17.67;15.13;;;589.00;2432.00;;;;;;4953326;29;19906;-74
2022/06/23 08:09:36;;;;;;;18.88;14.32;;;589.00;2432.00;;;;;;4953635;28;20473;-74
2022/06/23 08:16:49;;;;;;;21.98;17.60;;;588.90;2432.00;;;;;;4952476;29;20070;-74
2022/06/23 08:17:40;;;;;;;26.08;17.85;;;588.80;2432.00;;;;;;4953086;28;20035;-74
2022/06/23 08:20:12;;;;;;;35.05;22.20;;;564.10;2432.00;;;;;;4936382;29;20043;-74
2022/06/23 08:22:39;;;;;;;27.63;22.30;;;588.90;2432.00;;;;;;4952922;28;20027;-73
2022/06/23 08:25:07;;;;;;;29.60;20.10;;;588.90;2432.00;;;;;;4935866;29;20043;-74
2022/06/23 08:27:34;;;;;;;27.50;18.00;;;589.00;2432.00;;;;;;4953553;28;20046;-74
2022/06/23 08:30:07;;;;;;;25.42;18.25;;;589.10;2432.00;;;;;;4935052;29;20481;-74
2022/06/23 08:32:37;;;;;;;26.02;16.00;;;589.20;2432.00;;;;;;4936065;29;20426;-73
2022/06/23 08:35:38;;;;;;;21.63;17.48;;;589.30;2432.00;;;;;;4936163;29;20385;-74
2022/06/23 08:38:08;;;;;;;20.35;14.73;;;589.50;2432.00;;;;;;4955586;28;20055;-74
2022/06/23 08:40:44;;;;;;;22.75;16.85;;;589.70;2432.00;;;;;;4957118;28;20451;-74
2022/06/23 08:43:16;;;;;;;18.85;13.93;;;614.40;2432.00;;;;;;4939796;29;20031;-76
2022/06/23 08:46:01;;;;;;;23.70;14.82;;;614.60;2432.00;;;;;;4956922;28;20024;-75
2022/06/23 08:48:45;;;;;;;20.75;15.10;;;614.50;2432.00;;;;;;4939400;29;20038;-74
2022/06/23 08:51:36;;;;;;;18.58;14.52;;;614.40;2432.00;;;;;;4954392;29;20030;-74
2022/06/23 08:54:41;;;;;;;18.17;13.82;;;589.70;2432.00;;;;;;4938488;29;20040;-74
2022/06/23 08:57:24;;;;;;;18.58;12.23;;;614.50;2432.00;;;;;;4955329;28;20071;-75
2022/06/23 08:59:59;;;;;;;18.55;14.30;;;614.60;2432.00;;;;;;4956864;29;20032;-74
2022/06/23 09:02:32;;;;;;;24.90;13.13;;;614.70;2432.00;;;;;;4956790;28;20035;-74
2022/06/23 09:05:04;;;;;;;16.02;13.38;;;614.80;2432.00;;;;;;4939290;29;20035;-75
2022/06/23 09:08:05;;;;;;;15.68;11.88;;;614.80;2432.00;;;;;;4954328;28;20074;-73
2022/06/23 09:10:31;;;;;;;20.23;11.75;;;615.00;2432.00;;;;;;4924425;28;20039;-73
2022/06/23 09:13:11;;;;;;;15.35;13.45;;;614.80;2432.00;;;;;;4956252;28;20078;-73
2022/06/23 09:15:59;;;;;;;15.07;11.50;;;614.80;2432.00;;;;;;4955627;29;20027;-73
2022/06/23 09:18:49;;;;;;;16.15;12.00;;;614.80;2432.00;;;;;;4939058;29;20479;-73
2022/06/23 09:21:58;;;;;;;13.30;9.88;;;614.80;2432.00;;;;;;4956451;29;20094;-73
2022/06/23 09:24:38;;;;;;;17.08;11.23;;;614.60;2432.00;;;;;;4955814;29;20110;-74
2022/06/23 09:27:39;;;;;;;13.48;11.68;;;614.60;2432.00;;;;;;4938716;29;20023;-74
2022/06/23 09:30:04;;;;;;;17.15;12.35;;;614.60;2432.00;;;;;;4933604;29;20046;-74
2022/06/23 09:33:01;;;;;;;12.80;10.60;;;614.60;2432.00;;;;;;4938976;29;20540;-74
2022/06/23 09:35:52;;;;;;;18.88;11.45;;;614.60;2432.00;;;;;;4928684;29;20108;-72
2022/06/23 09:38:42;;;;;;;17.88;11.25;;;614.80;2432.00;;;;;;4954762;28;20078;-73
2022/06/23 09:41:13;;;;;;;17.40;13.30;;;614.80;2432.00;;;;;;4953712;28;20019;-73
2022/06/23 09:44:05;;;;;;;14.45;10.05;;;614.70;2432.00;;;;;;4955697;29;20031;-74
2022/06/23 09:46:42;;;;;;;15.45;10.50;;;614.60;2432.00;;;;;;4953456;28;20019;-74
2022/06/23 09:49:35;;;;;;;12.93;9.10;;;614.60;2432.00;;;;;;4952919;29;20122;-74
2022/06/23 09:52:21;;;;;;;11.10;9.73;;;614.60;2432.00;;;;;;4955108;28;20047;-74
2022/06/23 09:55:28;;;;;;;12.52;9.20;;;614.80;2432.00;;;;;;4955585;28;20030;-75
2022/06/23 09:58:00;;;;;;;13.70;9.13;;;615.10;2432.00;;;;;;4944845;29;20051;-74
2022/06/23 10:00:46;;;;;;;18.48;9.05;;;615.10;2432.00;;;;;;4955711;28;20024;-74
2022/06/23 10:03:45;;;;;;;14.77;9.05;;;;;;;;;;4944342;28;20032;-74
2022/06/23 10:06:32;;;;;;;9.23;7.35;;;640.50;2432.00;;;;;;4868007;29;20504;-76
2022/06/23 10:09:28;;;;;;;10.25;7.53;;;640.50;2432.00;;;;;;4868753;29;20034;-74
2022/06/23 10:12:27;;;;;;;11.10;8.80;;;640.60;2432.00;;;;;;4866676;29;20037;-75
2022/06/23 10:15:04;;;;;;;10.75;6.93;;;640.70;2432.00;;;;;;4854221;29;20021;-75
2022/06/23 10:17:51;;;;;;;8.90;7.55;;;640.90;2432.00;;;;;;4867714;29;20037;-75
2022/06/23 10:20:34;;;;;;;12.25;8.07;;;665.70;2432.00;;;;;;4868417;29;20045;-75
2022/06/23 10:23:11;;;;;;;8.82;6.22;;;665.60;2432.00;;;;;;4858555;29;20595;-75
2022/06/23 10:25:58;;;;;;;10.55;7.28;;;665.70;2432.00;;;;;;4866464;29;20049;-75
2022/06/23 10:28:48;;;;;;;9.80;7.28;;;665.60;2432.00;;;;;;4868323;29;20025;-75
2022/06/23 10:31:52;;;;;;;9.43;6.60;;;665.60;2432.00;;;;;;4864493;29;20037;-75
2022/06/23 10:34:24;;;;;;;10.93;6.93;;;666.10;2432.00;;;;;;4813068;29;20085;-76
2022/06/23 10:36:52;;;;;;;8.85;6.90;;;666.00;2432.00;;;;;;4813988;29;20042;-75
2022/06/23 10:39:42;;;;;;;9.25;7.10;;;666.40;2432.00;;;;;;4812459;29;20049;-74
2022/06/23 10:42:27;;;;;;;8.88;6.85;;;666.50;2432.00;;;;;;4869940;29;20394;-75
2022/06/23 10:45:40;;;;;;;8.20;6.07;;;666.40;2432.00;;;;;;4877377;29;20050;-75
2022/06/23 10:48:37;;;;;;;14.25;7.65;;;691.50;2432.00;;;;;;4868788;29;20026;-76
2022/06/23 10:51:21;;;;;;;11.45;6.90;;;691.20;2432.00;;;;;;4867603;29;20025;-75
2022/06/23 10:54:05;;;;;;;10.13;7.00;;;691.20;2432.00;;;;;;4864607;29;20029;-75
2022/06/23 10:56:47;;;;;;;10.35;6.35;;;666.30;2432.00;;;;;;4862000;29;20101;-75
2022/06/23 10:59:21;;;;;;;12.00;6.80;;;666.20;2432.00;;;;;;4854617;29;20044;-75
2022/06/23 11:02:04;;;;;;;14.55;7.43;;;666.00;2432.00;;;;;;4858289;29;20522;-76
2022/06/23 11:04:39;;;;;;;11.85;6.88;;;666.30;2432.00;;;;;;4842820;29;20042;-76
2022/06/23 11:07:24;;;;;;;10.27;6.13;;;666.20;2432.00;;;;;;4858559;29;20441;-76
2022/06/23 11:09:57;;;;;;;14.05;6.68;;;666.20;2432.00;;;;;;4852489;29;20049;-76
2022/06/23 11:12:51;;;;;;;9.70;6.72;;;665.90;2432.00;;;;;;4908227;29;20586;-76
2022/06/23 11:15:36;;;;;;;12.95;5.65;;;666.00;2432.00;;;;;;4898375;29;20191;-75
2022/06/23 11:18:16;;;;;;;9.38;6.45;;;666.20;2432.00;;;;;;4914242;29;20028;-76
2022/06/23 11:21:07;;;;;;;9.25;5.78;;;666.50;2432.00;;;;;;4897464;28;20027;-76
2022/06/23 11:24:00;;;;;;;13.50;6.22;;;691.20;2432.00;;;;;;4947241;29;20114;-76
2022/06/23 11:27:01;;;;;;;8.77;5.68;;;691.40;2432.00;;;;;;4935925;29;20420;-75
2022/06/23 11:29:41;;;;;;;9.65;5.47;;;716.80;2432.00;;;;;;4932507;28;20039;-77
2022/06/23 11:32:38;;;;;;;9.05;5.78;;;716.80;2432.00;;;;;;4937134;29;20066;-75
2022/06/23 11:35:24;;;;;;;10.32;5.00;;;716.90;2432.00;;;;;;4935929;29;20035;-75
2022/06/23 11:38:03;;;;;;;;;;;717.30;2252.80;;;;;;4952550;29;20106;-74
2022/06/23 11:40:53;;;;;;;11.00;5.20;;;716.80;2432.00;;;;;;4936272;29;20416;-75
2022/06/23 11:43:23;;;;;;;10.77;5.15;;;691.90;2432.00;;;;;;4953053;28;20135;-75
2022/06/23 11:46:02;;;;;;;8.10;5.07;;;691.80;2432.00;;;;;;4954052;29;20023;-75
2022/06/23 11:48:44;;;;;;;8.20;4.95;;;691.60;2432.00;;;;;;4954159;28;20038;-75
2022/06/23 11:51:29;;;;;;;7.47;4.82;;;691.60;2432.00;;;;;;4954328;29;20091;-75
2022/06/23 11:54:30;;;;;;;11.93;5.57;;;691.40;2432.00;;;;;;4936662;29;20118;-74
2022/06/23 11:57:40;;;;;;;10.80;5.40;;;691.40;2432.00;;;;;;4913579;29;20068;-74
2022/06/23 12:00:11;;;;;;;9.90;5.13;;;691.30;2432.00;;;;;;4881047;29;20044;-73
2022/06/23 12:02:57;;;;;;;13.75;5.53;;;691.20;2432.00;;;;;;4905503;29;20056;-73
2022/06/23 12:05:37;;;;;;;11.25;5.10;;;666.30;2432.00;;;;;;4897320;29;20039;-73
2022/06/23 12:08:27;;;;;;;9.38;4.82;;;666.30;2432.00;;;;;;4913193;29;20048;-74
2022/06/23 12:10:53;;;;;;;13.07;5.85;;;666.30;2432.00;;;;;;4912239;29;20557;-72
2022/06/23 12:13:22;;;;;;;10.82;5.20;;;666.30;2432.00;;;;;;4913013;29;20036;-73
2022/06/23 12:15:50;;;;;;;7.65;5.80;;;666.30;2432.00;;;;;;4913455;29;20024;-74
2022/06/23 12:18:25;;;;;;;9.38;5.28;;;666.50;2432.00;;;;;;4913151;29;20067;-75
2022/06/23 12:21:04;;;;;;;13.95;5.22;;;666.40;2432.00;;;;;;4906399;29;20059;-75
2022/06/23 12:23:32;;;;;;;8.75;4.45;;;666.40;2432.00;;;;;;4913391;29;20144;-74
2022/06/23 12:26:14;;;;;;;7.25;4.60;;;666.50;2432.00;;;;;;4913171;29;20040;-73
2022/06/23 12:28:40;;;;;;;8.27;4.50;;;691.20;2432.00;;;;;;4913754;29;20028;-73
2022/06/23 12:31:36;;;;;;;9.88;5.40;;;691.40;2432.00;;;;;;4936733;29;20087;-75
2022/06/23 12:34:05;;;;;;;10.98;4.70;;;691.70;2304.00;;;;;;4953520;28;20051;-74
2022/06/23 12:36:47;;;;;;;8.32;4.93;;;691.60;2432.00;;;;;;4936518;29;20031;-74
2022/06/23 12:39:54;;;;;;;6.00;4.63;;;691.60;2432.00;;;;;;4953662;29;20054;-74
2022/06/23 12:42:27;;;;;;;;;;;691.60;2380.80;;;;;;4938494;28;20039;-74
2022/06/23 12:45:08;;;;;;;8.88;4.45;;;691.60;2355.20;;;;;;4953053;28;19914;-73
2022/06/23 12:48:05;;;;;;;9.80;4.55;;;691.60;2304.00;;;;;;4953720;29;20493;-75
2022/06/23 12:50:52;;;;;;;8.02;4.75;;;691.70;2227.20;;;;;;4953468;28;20027;-74
2022/06/23 12:53:42;;;;;;;8.40;4.90;;;691.70;2380.80;;;;;;4952940;29;20031;-74
2022/06/23 12:56:35;;;;;;;7.32;5.10;;;691.90;2252.80;;;;;;4949855;28;20083;-73
2022/06/23 12:59:20;;;;;;;9.15;4.90;;;692.00;2201.60;;;;;;4951770;28;20532;-73
2022/06/23 13:02:12;;;;;;;11.38;4.75;;;717.00;2380.80;;;;;;4952696;29;20031;-74
2022/06/23 13:04:52;;;;;;;9.65;4.68;;;692.10;2252.80;;;;;;4894170;29;20149;-74
2022/06/23 13:07:25;;;;;;;8.10;4.32;;;692.10;2227.20;;;;;;4894096;29;20024;-74
2022/06/23 13:10:09;;;;;;;7.43;4.53;;;692.00;2099.20;;;;;;4894491;29;20037;-75
2022/06/23 13:12:44;;;;;;;6.35;4.90;;;716.80;2099.20;;;;;;4878695;29;20108;-74
2022/06/23 13:15:34;;;;;;;5.78;4.10;;;716.90;2176.00;;;;;;4893944;29;20067;-74
2022/06/23 13:18:34;;;;;;;7.00;4.63;;;716.90;1996.80;;;;;;4893844;29;20035;-74
2022/06/23 13:21:10;;;;;;;7.30;4.38;;;692.10;2150.40;;;;;;4893763;29;20035;-73
2022/06/23 13:23:50;;;;;;;10.98;4.68;;;691.90;2124.80;;;;;;4897508;29;20037;-73
2022/06/23 13:26:18;;;;;;;8.45;4.68;;;691.80;2099.20;;;;;;4896805;29;20028;-75
2022/06/23 13:28:45;;;;;;;8.75;4.65;;;691.80;2176.00;;;;;;4897234;29;20036;-73
2022/06/23 13:31:31;;;;;;;9.45;4.25;;;691.70;2252.80;;;;;;4896579;29;20402;-73
2022/06/23 13:34:00;;;;;;;6.90;4.28;;;691.50;2150.40;;;;;;4896934;29;20056;-73
2022/06/23 13:36:53;;;;;;;9.57;4.97;;;691.30;2176.00;;;;;;4881405;29;20035;-73
2022/06/23 13:39:50;;;;;;;10.05;4.75;;;691.30;2201.60;;;;;;4897175;29;20467;-73
2022/06/23 13:42:25;;;;;;;11.15;5.10;;;691.90;2124.80;;;;;;4944416;28;20031;-73